createdAt,value
2022-10-20T00:00:02.555Z,80.04
2022-10-20T00:01:02.553Z,80.04
2022-10-20T00:02:02.554Z,80.13
2022-10-20T00:03:02.685Z,80.13
2022-10-20T00:04:02.664Z,80.24
2022-10-20T00:05:02.611Z,80.33
2022-10-20T00:06:02.473Z,80.33
2022-10-20T00:07:02.479Z,80.33
2022-10-20T00:08:02.456Z,80.44
2022-10-20T00:09:02.628Z,80.54
2022-10-20T00:10:02.448Z,80.54
2022-10-20T00:11:02.440Z,80.54
2022-10-20T00:12:02.406Z,80.64
2022-10-20T00:13:02.440Z,80.64
2022-10-20T00:14:02.396Z,80.74
2022-10-20T00:15:02.417Z,80.74
2022-10-20T00:16:02.376Z,80.84
2022-10-20T00:17:02.364Z,80.94
2022-10-20T00:18:02.342Z,80.94
2022-10-20T00:19:02.355Z,81.04
2022-10-20T00:20:02.367Z,81.15
2022-10-20T00:21:02.347Z,81.15
2022-10-20T00:22:02.320Z,81.15
2022-10-20T00:23:02.320Z,81.24
2022-10-20T00:24:02.293Z,81.24
2022-10-20T00:25:02.273Z,81.35
2022-10-20T00:26:02.269Z,81.35
2022-10-20T00:27:02.293Z,81.45
2022-10-20T00:28:02.265Z,81.41
2022-10-20T00:29:02.230Z,81.55
2022-10-20T00:30:02.212Z,81.61
2022-10-20T00:31:02.321Z,81.71
2022-10-20T00:32:02.216Z,81.71
2022-10-20T00:33:02.236Z,81.81
2022-10-20T00:34:02.177Z,81.81
2022-10-20T00:35:02.160Z,81.91
2022-10-20T00:36:02.154Z,81.91
2022-10-20T00:37:02.149Z,81.91
2022-10-20T00:38:02.120Z,82.01
2022-10-20T00:39:02.441Z,82.01
2022-10-20T00:40:02.122Z,82.11
2022-10-20T00:41:02.152Z,82.11
2022-10-20T00:42:02.070Z,82.21
2022-10-20T00:43:02.095Z,82.21
2022-10-20T00:44:02.064Z,82.31
2022-10-20T00:45:02.052Z,82.31
2022-10-20T00:46:02.030Z,82.42
2022-10-20T00:47:02.044Z,82.51
2022-10-20T00:48:02.022Z,82.51
2022-10-20T00:49:02.019Z,82.62
2022-10-20T00:50:02.052Z,82.62
2022-10-20T00:51:01.979Z,82.62
2022-10-20T00:52:01.972Z,82.62
2022-10-20T00:53:01.985Z,82.71
2022-10-20T00:54:01.975Z,82.71
2022-10-20T00:55:01.951Z,82.71
2022-10-20T00:56:02.000Z,82.82
2022-10-20T00:58:01.924Z,82.82
2022-10-20T00:59:01.915Z,82.92
2022-10-20T01:00:01.908Z,83.02
2022-10-20T01:01:01.896Z,83.02
2022-10-20T01:02:01.930Z,83.02
2022-10-20T01:03:01.869Z,83.12
2022-10-20T01:04:01.867Z,83.12
2022-10-20T01:05:01.828Z,83.12
2022-10-20T01:06:01.822Z,83.22
2022-10-20T01:07:01.828Z,83.22
2022-10-20T01:08:01.806Z,83.22
2022-10-20T01:09:01.900Z,83.22
2022-10-20T01:10:01.796Z,83.32
2022-10-20T01:11:01.787Z,83.32
2022-10-20T01:12:01.748Z,83.32
2022-10-20T01:13:01.749Z,83.32
2022-10-20T01:14:01.737Z,83.32
2022-10-20T01:15:01.735Z,83.42
2022-10-20T01:16:01.709Z,83.42
2022-10-20T01:17:01.738Z,83.52
2022-10-20T01:18:01.704Z,83.52
2022-10-20T01:19:01.678Z,83.52
2022-10-20T01:20:01.691Z,83.52
2022-10-20T01:21:01.656Z,83.52
2022-10-20T01:22:01.664Z,83.62
2022-10-20T01:23:01.658Z,83.62
2022-10-20T01:24:01.617Z,83.62
2022-10-20T01:25:01.611Z,83.72
2022-10-20T01:26:01.610Z,83.72
2022-10-20T01:27:01.586Z,83.72
2022-10-20T01:28:01.589Z,83.72
2022-10-20T01:29:01.599Z,83.83
2022-10-20T01:30:01.580Z,83.83
2022-10-20T01:31:01.562Z,83.93
2022-10-20T01:32:01.537Z,83.93
2022-10-20T01:33:01.527Z,84.03
2022-10-20T01:34:01.535Z,84.13
2022-10-20T01:35:01.558Z,84.13
2022-10-20T01:36:01.498Z,84.23
2022-10-20T01:37:01.503Z,84.23
2022-10-20T01:38:01.477Z,84.33
2022-10-20T01:39:01.455Z,84.33
2022-10-20T01:40:01.468Z,84.33
2022-10-20T01:41:01.492Z,84.43
2022-10-20T01:42:01.439Z,84.43
2022-10-20T01:43:01.417Z,84.43
2022-10-20T01:44:01.428Z,84.53
2022-10-20T01:45:01.419Z,84.53
2022-10-20T01:46:01.397Z,84.53
2022-10-20T01:47:01.369Z,84.63
2022-10-20T01:48:01.379Z,84.63
2022-10-20T01:49:01.360Z,84.63
2022-10-20T01:50:01.384Z,84.63
2022-10-20T01:51:01.346Z,84.74
2022-10-20T01:52:01.314Z,84.83
2022-10-20T01:53:01.318Z,84.83
2022-10-20T01:54:01.308Z,84.83
2022-10-20T01:55:01.298Z,84.94
2022-10-20T01:56:01.314Z,84.94
2022-10-20T01:57:01.269Z,84.83
2022-10-20T01:58:01.280Z,84.94
2022-10-20T01:59:01.246Z,84.94
2022-10-20T02:00:01.277Z,85.03
2022-10-20T02:01:01.268Z,85.03
2022-10-20T02:02:01.226Z,85.14
2022-10-20T02:03:01.216Z,85.14
2022-10-20T02:04:01.194Z,85.14
2022-10-20T02:05:01.189Z,85.14
2022-10-20T02:06:01.162Z,85.24
2022-10-20T02:07:01.168Z,85.24
2022-10-20T02:08:01.142Z,85.24
2022-10-20T02:09:01.219Z,85.24
2022-10-20T02:10:01.173Z,85.34
2022-10-20T02:11:01.106Z,85.34
2022-10-20T02:12:01.094Z,85.34
2022-10-20T02:13:01.083Z,85.34
2022-10-20T02:14:01.075Z,85.44
2022-10-20T02:15:01.092Z,85.44
2022-10-20T02:16:01.052Z,85.54
2022-10-20T02:17:01.054Z,85.54
2022-10-20T02:18:01.047Z,85.54
2022-10-20T02:19:01.031Z,85.64
2022-10-20T02:20:01.026Z,85.64
2022-10-20T02:21:01.036Z,85.64
2022-10-20T02:22:00.996Z,85.64
2022-10-20T02:23:00.975Z,85.64
2022-10-20T02:24:00.991Z,85.64
2022-10-20T02:25:00.965Z,85.74
2022-10-20T02:26:00.978Z,85.74
2022-10-20T02:27:00.956Z,85.74
2022-10-20T02:28:00.952Z,85.74
2022-10-20T02:29:00.926Z,85.74
2022-10-20T02:30:00.905Z,85.74
2022-10-20T02:31:00.916Z,85.74
2022-10-20T02:32:00.882Z,85.74
2022-10-20T02:33:00.897Z,85.74
2022-10-20T02:34:00.903Z,85.84
2022-10-20T02:35:07.916Z,85.84
2022-10-20T02:36:01.613Z,85.94
2022-10-20T02:37:00.830Z,85.94
2022-10-20T02:38:00.831Z,85.94
2022-10-20T02:39:00.815Z,85.94
2022-10-20T02:40:00.833Z,85.94
2022-10-20T02:41:00.840Z,85.94
2022-10-20T02:42:00.795Z,86.04
2022-10-20T02:43:00.784Z,86.04
2022-10-20T02:44:00.766Z,86.04
2022-10-20T02:45:00.745Z,86.04
2022-10-20T02:46:00.744Z,86.04
2022-10-20T02:47:00.747Z,86.04
2022-10-20T02:48:00.715Z,86.04
2022-10-20T02:49:00.704Z,86.04
2022-10-20T02:50:00.708Z,86.15
2022-10-20T02:51:00.678Z,86.15
2022-10-20T02:52:00.694Z,86.15
2022-10-20T02:53:00.663Z,86.15
2022-10-20T02:54:00.675Z,86.24
2022-10-20T02:55:00.630Z,86.24
2022-10-20T02:56:00.654Z,86.24
2022-10-20T02:57:00.618Z,86.24
2022-10-20T02:58:00.615Z,86.24
2022-10-20T02:59:00.597Z,86.35
2022-10-20T03:00:00.595Z,86.35
2022-10-20T03:01:00.596Z,86.35
2022-10-20T03:02:00.618Z,86.35
2022-10-20T03:03:00.567Z,86.30
2022-10-20T03:04:00.579Z,86.30
2022-10-20T03:05:00.519Z,86.44
2022-10-20T03:06:00.517Z,86.51
2022-10-20T03:07:00.532Z,86.51
2022-10-20T03:08:00.512Z,86.55
2022-10-20T03:09:00.531Z,86.51
2022-10-20T03:10:00.478Z,86.51
2022-10-20T03:11:00.458Z,86.51
2022-10-20T03:12:00.467Z,86.61
2022-10-20T03:13:00.438Z,86.65
2022-10-20T03:14:00.442Z,86.61
2022-10-20T03:15:00.439Z,86.51
2022-10-20T03:16:00.410Z,86.55
2022-10-20T03:17:00.432Z,86.65
2022-10-20T03:18:00.392Z,86.51
2022-10-20T03:19:03.979Z,86.61
2022-10-20T03:20:01.374Z,86.65
2022-10-20T03:21:00.347Z,86.65
2022-10-20T03:22:00.390Z,86.75
2022-10-20T03:23:00.363Z,86.75
2022-10-20T03:24:00.346Z,86.75
2022-10-20T03:25:00.331Z,86.75
2022-10-20T03:26:00.319Z,86.75
2022-10-20T03:27:00.336Z,86.81
2022-10-20T03:28:00.275Z,86.85
2022-10-20T03:29:00.347Z,86.85
2022-10-20T03:30:00.273Z,86.81
2022-10-20T03:31:00.250Z,86.81
2022-10-20T03:32:00.240Z,86.85
2022-10-20T03:33:00.217Z,86.81
2022-10-20T03:34:00.243Z,86.85
2022-10-20T03:35:00.199Z,86.81
2022-10-20T03:36:00.195Z,86.81
2022-10-20T03:37:00.205Z,86.81
2022-10-20T03:38:00.175Z,86.91
2022-10-20T03:39:00.177Z,86.91
2022-10-20T03:40:00.166Z,86.91
2022-10-20T03:42:00.162Z,86.91
2022-10-20T03:43:00.121Z,87.01
2022-10-20T03:44:00.121Z,86.91
2022-10-20T03:45:00.114Z,86.91
2022-10-20T03:46:00.086Z,87.01
2022-10-20T03:47:00.107Z,87.01
2022-10-20T03:48:00.082Z,87.01
2022-10-20T03:49:00.093Z,87.11
2022-10-20T03:50:00.236Z,87.01
2022-10-20T03:51:00.058Z,87.11
2022-10-20T03:52:00.059Z,87.21
2022-10-20T03:53:00.033Z,87.21
2022-10-20T03:54:00.039Z,87.21
2022-10-20T03:54:59.977Z,87.21
2022-10-20T03:55:59.973Z,87.21
2022-10-20T03:56:59.965Z,87.21
2022-10-20T03:58:00.003Z,87.21
2022-10-20T03:59:00.045Z,87.21
2022-10-20T03:59:59.957Z,87.21
2022-10-20T04:00:59.928Z,87.21
2022-10-20T04:02:00.021Z,87.21
2022-10-20T04:02:59.983Z,87.11
2022-10-20T04:03:59.928Z,87.21
2022-10-20T04:04:59.890Z,87.21
2022-10-20T04:05:59.892Z,87.21
2022-10-20T04:06:59.907Z,87.21
2022-10-20T04:07:59.843Z,87.21
2022-10-20T04:08:59.954Z,87.21
2022-10-20T04:09:59.823Z,87.21
2022-10-20T04:10:59.837Z,87.21
2022-10-20T04:11:59.817Z,87.21
2022-10-20T04:12:59.852Z,87.31
2022-10-20T04:13:59.789Z,87.31
2022-10-20T04:14:59.784Z,87.31
2022-10-20T04:15:59.824Z,87.31
2022-10-20T04:16:59.757Z,87.31
2022-10-20T04:17:59.774Z,87.31
2022-10-20T04:18:59.738Z,87.31
2022-10-20T04:19:59.751Z,87.31
2022-10-20T04:20:59.694Z,87.31
2022-10-20T04:22:00.375Z,87.31
2022-10-20T04:22:59.734Z,87.31
2022-10-20T04:23:59.687Z,87.41
2022-10-20T04:24:59.655Z,87.31
2022-10-20T04:25:59.683Z,87.41
2022-10-20T04:26:59.651Z,87.51
2022-10-20T04:27:59.623Z,87.41
2022-10-20T04:28:59.636Z,87.41
2022-10-20T04:29:59.611Z,87.41
2022-10-20T04:30:59.605Z,87.51
2022-10-20T04:31:59.604Z,87.41
2022-10-20T04:32:59.571Z,87.51
2022-10-20T04:33:59.575Z,87.51
2022-10-20T04:34:59.606Z,87.51
2022-10-20T04:35:59.568Z,87.51
2022-10-20T04:36:59.533Z,87.51
2022-10-20T04:37:59.534Z,87.51
2022-10-20T04:38:59.553Z,87.51
2022-10-20T04:39:59.500Z,87.51
2022-10-20T04:41:01.879Z,87.62
2022-10-20T04:41:59.481Z,87.62
2022-10-20T04:42:59.463Z,87.62
2022-10-20T04:43:59.484Z,87.62
2022-10-20T04:44:59.466Z,87.51
2022-10-20T04:46:00.730Z,87.62
2022-10-20T04:46:59.435Z,87.51
2022-10-20T04:47:59.412Z,87.51
2022-10-20T04:48:59.403Z,87.51
2022-10-20T04:49:59.399Z,87.62
2022-10-20T04:50:59.371Z,87.62
2022-10-20T04:52:01.143Z,87.62
2022-10-20T04:52:59.363Z,87.62
2022-10-20T04:53:59.373Z,87.62
2022-10-20T04:54:59.351Z,87.62
2022-10-20T04:55:59.347Z,87.62
2022-10-20T04:56:59.323Z,87.62
2022-10-20T04:57:59.332Z,87.62
2022-10-20T04:58:59.323Z,87.71
2022-10-20T04:59:59.280Z,87.71
2022-10-20T05:00:59.268Z,87.71
2022-10-20T05:01:59.332Z,87.71
2022-10-20T05:02:59.295Z,87.71
2022-10-20T05:03:59.250Z,87.82
2022-10-20T05:04:59.221Z,87.82
2022-10-20T05:05:59.231Z,87.71
2022-10-20T05:06:59.210Z,87.71
2022-10-20T05:07:59.222Z,87.71
2022-10-20T05:08:59.332Z,87.82
2022-10-20T05:09:59.180Z,87.82
2022-10-20T05:10:59.160Z,87.82
2022-10-20T05:11:59.173Z,87.82
2022-10-20T05:12:59.141Z,87.82
2022-10-20T05:13:59.181Z,87.82
2022-10-20T05:14:59.129Z,87.82
2022-10-20T05:15:59.129Z,87.92
2022-10-20T05:16:59.112Z,87.82
2022-10-20T05:17:59.111Z,87.82
2022-10-20T05:18:59.079Z,87.82
2022-10-20T05:19:59.080Z,87.92
2022-10-20T05:21:11.445Z,87.92
2022-10-20T05:22:00.075Z,87.92
2022-10-20T05:22:59.042Z,87.82
2022-10-20T05:23:59.042Z,87.92
2022-10-20T05:25:12.757Z,87.92
2022-10-20T05:26:00.007Z,87.92
2022-10-20T05:26:58.991Z,87.92
2022-10-20T05:27:58.977Z,87.92
2022-10-20T05:28:59.007Z,87.92
2022-10-20T05:29:58.983Z,87.92
2022-10-20T05:31:01.403Z,87.92
2022-10-20T05:31:58.941Z,88.02
2022-10-20T05:32:58.930Z,88.02
2022-10-20T05:33:58.936Z,88.02
2022-10-20T05:34:58.913Z,88.02
2022-10-20T05:35:58.897Z,88.02
2022-10-20T05:36:58.889Z,87.92
2022-10-20T05:37:58.876Z,87.92
2022-10-20T05:38:58.857Z,87.92
2022-10-20T05:39:58.872Z,87.82
2022-10-20T05:40:58.882Z,87.82
2022-10-20T05:41:58.951Z,87.82
2022-10-20T05:42:58.816Z,87.82
2022-10-20T05:43:58.821Z,87.71
2022-10-20T05:44:58.801Z,87.71
2022-10-20T05:45:58.786Z,87.71
2022-10-20T05:46:58.810Z,87.82
2022-10-20T05:47:58.782Z,88.02
2022-10-20T05:48:59.169Z,88.02
2022-10-20T05:49:58.762Z,88.12
2022-10-20T05:50:58.741Z,88.22
2022-10-20T05:51:58.740Z,88.12
2022-10-20T05:52:58.708Z,88.12
2022-10-20T05:53:58.710Z,88.02
2022-10-20T05:54:58.702Z,88.02
2022-10-20T05:55:58.691Z,88.02
2022-10-20T05:56:58.680Z,87.92
2022-10-20T05:57:58.680Z,87.92
2022-10-20T05:58:58.651Z,87.92
2022-10-20T05:59:58.640Z,87.92
2022-10-20T06:00:58.631Z,87.92
2022-10-20T06:01:58.630Z,87.92
2022-10-20T06:02:58.621Z,87.82
2022-10-20T06:03:58.640Z,87.82
2022-10-20T06:04:58.575Z,87.82
2022-10-20T06:05:58.566Z,87.82
2022-10-20T06:06:58.557Z,87.71
2022-10-20T06:07:58.578Z,87.71
2022-10-20T06:08:58.646Z,87.71
2022-10-20T06:09:58.555Z,87.76
2022-10-20T06:10:58.530Z,87.76
2022-10-20T06:11:58.571Z,87.65
2022-10-20T06:12:58.510Z,87.65
2022-10-20T06:13:58.506Z,87.65
2022-10-20T06:14:58.501Z,87.65
2022-10-20T06:15:58.488Z,87.65
2022-10-20T06:16:58.454Z,87.65
2022-10-20T06:17:58.459Z,87.55
2022-10-20T06:18:58.438Z,87.55
2022-10-20T06:19:58.465Z,87.55
2022-10-20T06:20:58.428Z,87.55
2022-10-20T06:22:02.504Z,87.55
2022-10-20T06:22:59.400Z,87.55
2022-10-20T06:23:58.384Z,87.45
2022-10-20T06:24:58.377Z,87.45
2022-10-20T06:25:58.365Z,87.45
2022-10-20T06:26:58.366Z,87.45
2022-10-20T06:27:58.369Z,87.45
2022-10-20T06:29:03.673Z,87.45
2022-10-20T06:29:59.313Z,87.45
2022-10-20T06:30:58.314Z,87.45
2022-10-20T06:31:58.309Z,87.45
2022-10-20T06:32:58.296Z,87.45
2022-10-20T06:33:58.265Z,87.45
2022-10-20T06:34:58.267Z,87.45
2022-10-20T06:35:58.246Z,87.35
2022-10-20T06:36:58.256Z,87.35
2022-10-20T06:37:58.249Z,87.35
2022-10-20T06:38:58.231Z,87.35
2022-10-20T06:39:58.193Z,87.45
2022-10-20T06:40:58.193Z,87.45
2022-10-20T06:41:58.190Z,87.45
2022-10-20T06:42:58.185Z,87.45
2022-10-20T06:43:58.179Z,87.45
2022-10-20T06:44:58.153Z,87.45
2022-10-20T06:45:58.132Z,87.45
2022-10-20T06:46:58.155Z,87.55
2022-10-20T06:47:58.119Z,87.45
2022-10-20T06:48:59.097Z,87.45
2022-10-20T06:49:58.102Z,87.45
2022-10-20T06:50:58.089Z,87.45
2022-10-20T06:51:58.103Z,87.45
2022-10-20T06:52:58.085Z,87.45
2022-10-20T06:53:58.065Z,87.45
2022-10-20T06:54:58.077Z,87.45
2022-10-20T06:55:58.030Z,87.45
2022-10-20T06:56:58.033Z,87.45
2022-10-20T06:57:58.005Z,87.45
2022-10-20T06:58:58.032Z,87.35
2022-10-20T06:59:58.005Z,87.49
2022-10-20T07:00:57.981Z,87.40
2022-10-20T07:01:58.012Z,87.40
2022-10-20T07:02:57.979Z,87.35
2022-10-20T07:03:57.955Z,87.40
2022-10-20T07:04:57.956Z,87.40
2022-10-20T07:05:57.919Z,87.40
2022-10-20T07:06:57.934Z,87.40
2022-10-20T07:07:57.937Z,87.40
2022-10-20T07:08:57.984Z,87.40
2022-10-20T07:09:57.904Z,87.40
2022-10-20T07:10:57.893Z,87.40
2022-10-20T07:11:57.883Z,87.40
2022-10-20T07:12:57.857Z,87.40
2022-10-20T07:13:57.838Z,87.40
2022-10-20T07:14:57.819Z,87.29
2022-10-20T07:15:57.810Z,87.40
2022-10-20T07:16:57.825Z,87.40
2022-10-20T07:17:57.797Z,87.40
2022-10-20T07:18:57.794Z,87.29
2022-10-20T07:19:57.773Z,87.29
2022-10-20T07:20:57.790Z,87.29
2022-10-20T07:21:57.785Z,87.29
2022-10-20T07:22:57.764Z,87.29
2022-10-20T07:23:57.739Z,87.29
2022-10-20T07:24:57.753Z,87.29
2022-10-20T07:25:57.722Z,87.29
2022-10-20T07:26:57.741Z,87.29
2022-10-20T07:27:57.679Z,87.29
2022-10-20T07:28:57.689Z,87.19
2022-10-20T07:29:57.674Z,87.19
2022-10-20T07:30:57.675Z,87.19
2022-10-20T07:31:59.941Z,87.19
2022-10-20T07:32:57.705Z,87.19
2022-10-20T07:34:06.837Z,87.19
2022-10-20T07:34:58.631Z,87.19
2022-10-20T07:35:57.629Z,87.19
2022-10-20T07:36:57.631Z,87.19
2022-10-20T07:37:57.624Z,87.19
2022-10-20T07:38:57.589Z,87.19
2022-10-20T07:39:57.557Z,87.19
2022-10-20T07:41:00.634Z,87.19
2022-10-20T07:41:57.538Z,87.19
2022-10-20T07:42:57.544Z,87.19
2022-10-20T07:43:57.538Z,87.09
2022-10-20T07:44:57.529Z,87.09
2022-10-20T07:45:57.501Z,87.09
2022-10-20T07:46:57.498Z,87.09
2022-10-20T07:47:57.481Z,87.19
2022-10-20T07:49:11.434Z,87.19
2022-10-20T07:49:58.466Z,87.09
2022-10-20T07:50:57.446Z,87.09
2022-10-20T07:51:57.420Z,87.09
2022-10-20T07:52:57.442Z,87.19
2022-10-20T07:53:59.801Z,87.09
2022-10-20T07:55:06.375Z,87.09
2022-10-20T07:55:58.397Z,87.09
2022-10-20T07:56:57.375Z,87.09
2022-10-20T07:57:57.369Z,87.09
2022-10-20T07:58:57.381Z,87.09
2022-10-20T07:59:57.346Z,87.09
2022-10-20T08:00:57.359Z,87.09
2022-10-20T08:01:59.607Z,87.09
2022-10-20T08:02:57.307Z,87.09
2022-10-20T08:03:57.295Z,87.09
2022-10-20T08:04:57.301Z,86.99
2022-10-20T08:05:57.275Z,86.99
2022-10-20T08:06:57.266Z,87.09
2022-10-20T08:07:58.268Z,86.99
2022-10-20T08:08:57.324Z,86.99
2022-10-20T08:09:57.237Z,86.99
2022-10-20T08:10:57.241Z,86.99
2022-10-20T08:11:57.249Z,86.99
2022-10-20T08:12:57.205Z,86.99
2022-10-20T08:13:57.203Z,86.89
2022-10-20T08:14:57.189Z,86.99
2022-10-20T08:16:00.396Z,86.99
2022-10-20T08:16:57.240Z,86.89
2022-10-20T08:17:57.162Z,86.89
2022-10-20T08:20:01.677Z,86.99
2022-10-20T08:20:57.128Z,86.99
2022-10-20T08:21:57.133Z,86.99
2022-10-20T08:22:57.094Z,87.09
2022-10-20T08:23:57.086Z,87.19
2022-10-20T08:24:57.098Z,87.19
2022-10-20T08:25:57.067Z,87.29
2022-10-20T08:26:57.067Z,87.19
2022-10-20T08:28:57.036Z,87.40
2022-10-20T08:30:06.038Z,87.29
2022-10-20T08:30:58.019Z,87.40
2022-10-20T08:31:57.007Z,87.40
2022-10-20T08:32:56.997Z,87.49
2022-10-20T08:33:56.996Z,87.49
2022-10-20T08:34:56.972Z,87.60
2022-10-20T08:36:03.964Z,87.60
2022-10-20T08:36:56.969Z,87.55
2022-10-20T08:37:56.931Z,87.55
2022-10-20T08:38:57.682Z,87.55
2022-10-20T08:39:56.916Z,87.55
2022-10-20T08:40:56.904Z,87.65
2022-10-20T08:42:07.985Z,87.65
2022-10-20T08:42:57.885Z,87.55
2022-10-20T08:43:56.871Z,87.65
2022-10-20T08:44:56.849Z,87.76
2022-10-20T08:45:56.847Z,87.76
2022-10-20T08:46:56.847Z,87.85
2022-10-20T08:47:56.844Z,87.85
2022-10-20T08:48:56.826Z,87.85
2022-10-20T08:49:56.815Z,87.85
2022-10-20T08:50:56.781Z,87.85
2022-10-20T08:51:56.769Z,87.85
2022-10-20T08:52:56.794Z,87.85
2022-10-20T08:53:56.777Z,87.85
2022-10-20T08:54:56.739Z,87.85
2022-10-20T08:55:56.743Z,87.85
2022-10-20T08:56:56.719Z,87.85
2022-10-20T08:57:56.715Z,87.85
2022-10-20T08:58:56.714Z,87.85
2022-10-20T08:59:56.714Z,87.96
2022-10-20T09:00:56.680Z,87.96
2022-10-20T09:01:56.715Z,87.96
2022-10-20T09:02:56.693Z,87.96
2022-10-20T09:03:56.640Z,87.96
2022-10-20T09:04:56.653Z,87.96
2022-10-20T09:05:56.640Z,87.96
2022-10-20T09:06:56.629Z,87.96
2022-10-20T09:07:56.612Z,87.92
2022-10-20T09:08:56.639Z,87.92
2022-10-20T09:09:56.595Z,87.92
2022-10-20T09:10:56.594Z,88.02
2022-10-20T09:11:56.558Z,87.92
2022-10-20T09:12:56.581Z,88.02
2022-10-20T09:13:56.561Z,88.02
2022-10-20T09:14:56.529Z,88.02
2022-10-20T09:15:56.520Z,88.02
2022-10-20T09:17:00.262Z,88.02
2022-10-20T09:17:56.511Z,88.12
2022-10-20T09:18:56.491Z,88.12
2022-10-20T09:19:56.467Z,88.12
2022-10-20T09:20:56.472Z,88.12
2022-10-20T09:21:56.456Z,88.12
2022-10-20T09:22:56.491Z,88.22
2022-10-20T09:23:56.435Z,88.22
2022-10-20T09:24:56.460Z,88.12
2022-10-20T09:25:56.425Z,88.12
2022-10-20T09:27:00.259Z,88.22
2022-10-20T09:27:56.389Z,88.32
2022-10-20T09:29:12.428Z,88.22
2022-10-20T09:29:57.370Z,88.22
2022-10-20T09:30:56.372Z,88.22
2022-10-20T09:31:56.367Z,88.32
2022-10-20T09:32:56.538Z,88.22
2022-10-20T09:33:56.338Z,88.32
2022-10-20T09:34:56.323Z,88.32
2022-10-20T09:35:56.305Z,88.32
2022-10-20T09:36:56.297Z,88.32
2022-10-20T09:37:56.313Z,88.42
2022-10-20T09:38:56.292Z,88.42
2022-10-20T09:39:56.269Z,88.42
2022-10-20T09:40:56.273Z,88.42
2022-10-20T09:41:56.264Z,88.52
2022-10-20T09:42:56.227Z,88.52
2022-10-20T09:43:58.073Z,88.52
2022-10-20T09:44:56.212Z,88.52
2022-10-20T09:45:56.209Z,88.52
2022-10-20T09:46:56.188Z,88.58
2022-10-20T09:47:56.177Z,88.58
2022-10-20T09:48:56.156Z,88.58
2022-10-20T09:50:00.788Z,88.58
2022-10-20T09:50:57.161Z,88.58
2022-10-20T09:51:56.127Z,88.48
2022-10-20T09:52:56.114Z,88.48
2022-10-20T09:53:56.114Z,88.58
2022-10-20T09:54:56.110Z,88.58
2022-10-20T09:55:56.101Z,88.68
2022-10-20T09:56:56.080Z,88.58
2022-10-20T09:57:56.085Z,88.58
2022-10-20T09:58:56.069Z,88.58
2022-10-20T09:59:58.637Z,88.68
2022-10-20T10:00:57.066Z,88.58
2022-10-20T10:01:56.019Z,88.58
2022-10-20T10:02:56.004Z,88.58
2022-10-20T10:03:56.001Z,88.68
2022-10-20T10:04:55.988Z,88.68
2022-10-20T10:05:55.963Z,88.68
2022-10-20T10:06:55.966Z,88.68
2022-10-20T10:07:55.969Z,88.68
2022-10-20T10:08:55.969Z,88.68
2022-10-20T10:09:55.935Z,88.58
2022-10-20T10:10:55.916Z,88.68
2022-10-20T10:11:55.901Z,88.58
2022-10-20T10:12:55.976Z,88.68
2022-10-20T10:13:55.914Z,88.68
2022-10-20T10:14:55.887Z,88.68
2022-10-20T10:15:55.862Z,88.68
2022-10-20T10:16:55.878Z,88.68
2022-10-20T10:17:55.857Z,88.58
2022-10-20T10:18:55.843Z,88.68
2022-10-20T10:19:56.444Z,88.68
2022-10-20T10:20:55.827Z,88.68
2022-10-20T10:21:55.794Z,88.68
2022-10-20T10:22:55.781Z,88.68
2022-10-20T10:23:55.779Z,88.64
2022-10-20T10:24:55.777Z,88.54
2022-10-20T10:25:59.220Z,88.74
2022-10-20T10:26:56.806Z,88.64
2022-10-20T10:27:55.724Z,88.64
2022-10-20T10:28:55.739Z,88.64
2022-10-20T10:29:55.726Z,88.64
2022-10-20T10:30:55.717Z,88.64
2022-10-20T10:31:55.731Z,88.64
2022-10-20T10:32:55.923Z,88.64
2022-10-20T10:33:55.875Z,88.64
2022-10-20T10:34:55.687Z,88.64
2022-10-20T10:35:55.655Z,88.64
2022-10-20T10:36:55.645Z,88.74
2022-10-20T10:37:55.643Z,88.64
2022-10-20T10:38:56.229Z,88.74
2022-10-20T10:39:55.602Z,88.64
2022-10-20T10:40:55.598Z,88.64
2022-10-20T10:41:55.619Z,88.64
2022-10-20T10:42:55.572Z,88.64
2022-10-20T10:43:55.564Z,88.54
2022-10-20T10:44:55.559Z,88.54
2022-10-20T10:45:55.562Z,88.54
2022-10-20T10:46:55.539Z,88.54
2022-10-20T10:47:55.540Z,88.49
2022-10-20T10:48:55.512Z,88.39
2022-10-20T10:49:55.525Z,88.39
2022-10-20T10:50:55.484Z,88.49
2022-10-20T10:51:55.481Z,88.39
2022-10-20T10:52:55.479Z,88.39
2022-10-20T10:53:55.460Z,88.39
2022-10-20T10:54:55.465Z,88.39
2022-10-20T10:55:55.511Z,88.39
2022-10-20T10:56:55.418Z,88.39
2022-10-20T10:57:55.428Z,88.29
2022-10-20T10:58:55.400Z,88.39
2022-10-20T10:59:55.403Z,88.39
2022-10-20T11:00:55.398Z,88.39
2022-10-20T11:01:55.369Z,88.49
2022-10-20T11:02:55.351Z,88.49
2022-10-20T11:03:55.383Z,88.49
2022-10-20T11:04:55.351Z,88.59
2022-10-20T11:05:55.343Z,88.49
2022-10-20T11:06:57.876Z,88.49
2022-10-20T11:07:55.318Z,88.49
2022-10-20T11:08:55.348Z,88.49
2022-10-20T11:09:55.299Z,88.49
2022-10-20T11:10:55.284Z,88.59
2022-10-20T11:11:55.283Z,88.59
2022-10-20T11:12:55.279Z,88.49
2022-10-20T11:13:55.254Z,88.49
2022-10-20T11:14:55.239Z,88.49
2022-10-20T11:15:55.231Z,88.59
2022-10-20T11:16:55.222Z,88.59
2022-10-20T11:17:55.265Z,88.59
2022-10-20T11:18:55.191Z,88.59
2022-10-20T11:19:55.191Z,88.49
2022-10-20T11:20:55.159Z,88.49
2022-10-20T11:21:55.158Z,88.49
2022-10-20T11:22:55.158Z,88.59
2022-10-20T11:23:55.163Z,88.59
2022-10-20T11:24:55.143Z,88.59
2022-10-20T11:25:55.141Z,88.59
2022-10-20T11:26:55.098Z,88.59
2022-10-20T11:27:55.113Z,88.59
2022-10-20T11:28:55.154Z,88.70
2022-10-20T11:29:55.089Z,88.70
2022-10-20T11:30:55.079Z,88.59
2022-10-20T11:31:55.050Z,88.70
2022-10-20T11:32:55.059Z,88.70
2022-10-20T11:33:55.044Z,88.70
2022-10-20T11:34:55.041Z,88.75
2022-10-20T11:35:55.035Z,88.65
2022-10-20T11:36:55.021Z,88.55
2022-10-20T11:37:55.004Z,88.55
2022-10-20T11:38:54.973Z,88.55
2022-10-20T11:39:54.968Z,88.55
2022-10-20T11:40:54.949Z,88.65
2022-10-20T11:41:54.965Z,88.55
2022-10-20T11:42:54.962Z,88.55
2022-10-20T11:43:54.937Z,88.45
2022-10-20T11:44:54.927Z,88.55
2022-10-20T11:45:54.897Z,88.65
2022-10-20T11:46:54.879Z,88.65
2022-10-20T11:47:54.893Z,88.65
2022-10-20T11:48:54.882Z,88.65
2022-10-20T11:49:54.862Z,88.55
2022-10-20T11:50:54.899Z,88.65
2022-10-20T11:51:54.827Z,88.65
2022-10-20T11:52:54.842Z,88.65
2022-10-20T11:53:54.820Z,88.65
2022-10-20T11:54:54.798Z,88.75
2022-10-20T11:55:54.799Z,88.65
2022-10-20T11:56:54.789Z,88.65
2022-10-20T11:57:57.555Z,88.65
2022-10-20T11:58:54.759Z,88.65
2022-10-20T11:59:54.772Z,88.55
2022-10-20T12:00:56.387Z,88.65
2022-10-20T12:01:54.742Z,88.65
2022-10-20T12:02:54.704Z,88.55
2022-10-20T12:03:54.719Z,88.55
2022-10-20T12:04:54.699Z,88.55
2022-10-20T12:05:54.688Z,88.55
2022-10-20T12:06:54.680Z,88.65
2022-10-20T12:08:10.977Z,88.65
2022-10-20T12:08:55.688Z,88.55
2022-10-20T12:09:54.648Z,88.65
2022-10-20T12:10:54.647Z,88.55
2022-10-20T12:11:54.630Z,88.55
2022-10-20T12:12:54.606Z,88.51
2022-10-20T12:13:54.608Z,88.51
2022-10-20T12:14:54.574Z,88.51
2022-10-20T12:15:54.575Z,88.55
2022-10-20T12:16:54.646Z,88.51
2022-10-20T12:17:54.553Z,88.51
2022-10-20T12:18:54.568Z,88.51
2022-10-20T12:19:54.537Z,88.51
2022-10-20T12:20:54.540Z,88.41
2022-10-20T12:21:54.512Z,88.41
2022-10-20T12:22:54.518Z,88.41
2022-10-20T12:23:54.490Z,88.41
2022-10-20T12:24:54.497Z,88.41
2022-10-20T12:25:54.557Z,88.45
2022-10-20T12:26:54.474Z,88.55
2022-10-20T12:27:54.462Z,88.41
2022-10-20T12:28:54.414Z,88.55
2022-10-20T12:29:54.437Z,88.45
2022-10-20T12:30:54.421Z,88.55
2022-10-20T12:31:56.907Z,88.65
2022-10-20T12:32:54.412Z,88.55
2022-10-20T12:33:54.377Z,88.65
2022-10-20T12:34:54.380Z,88.55
2022-10-20T12:35:54.366Z,88.55
2022-10-20T12:36:54.467Z,88.55
2022-10-20T12:37:54.333Z,88.55
2022-10-20T12:38:54.408Z,88.55
2022-10-20T12:39:54.334Z,88.55
2022-10-20T12:40:54.307Z,88.55
2022-10-20T12:41:54.300Z,88.55
2022-10-20T12:42:54.292Z,88.55
2022-10-20T12:43:54.265Z,88.65
2022-10-20T12:44:54.257Z,88.55
2022-10-20T12:45:54.235Z,88.45
2022-10-20T12:46:54.269Z,88.45
2022-10-20T12:47:54.250Z,88.45
2022-10-20T12:48:54.233Z,88.55
2022-10-20T12:49:54.218Z,88.55
2022-10-20T12:50:54.182Z,88.45
2022-10-20T12:51:54.187Z,88.55
2022-10-20T12:52:54.184Z,88.45
2022-10-20T12:53:54.166Z,88.55
2022-10-20T12:54:54.151Z,88.55
2022-10-20T12:55:54.141Z,88.55